OPLA/LHE METAR and TAF weather

Enter ICAO airport designator
Station Type Date Time Source
OPLA METAR 2020/09/20 01:25 UTC NOAA

OPLA 200125Z 00000KT 4000 FU FEW100 28/21 Q1003 RMK QFE975 RMK A29.64


Station Type Date Time Source
OPLA Decoded METAR 2020/09/20 01:25 UTC NOAA

Lahore Airport, Pakistan (OPLA) 31-31N 074-24E 217M
Sep 19, 2020 - 09:25 PM EDT / 2020.09.20 0125 UTC
Wind: Calm:0
Visibility: 2 mile(s):0
Sky conditions: mostly clear
Weather: smoke
Temperature: 82 F (28 C)
Dew Point: 69 F (21 C)
Relative Humidity: 65%
Pressure (altimeter): 29.62 in. Hg (1003 hPa)
ob: OPLA 200125Z 00000KT 4000 FU FEW100 28/21 Q1003 RMK QFE975 RMK A29.64
cycle: 1

Station Type Date Time Source
OPLA TAF 2020/09/19 18:03 UTC NOAA

TAF OPLA 191545Z 1918/2024 32006KT 4000 FU NSC TX39/2010Z TN29/2024Z
TEMPO 1923/2003 16006KT 3000 FU
BECMG 2007/2012 34008KT 6000

Example: see airport list